createdAt,value
2017-11-15T00:01:15.022Z,33.33
2017-11-15T00:03:43.666Z,35.53
2017-11-15T00:06:12.107Z,35.63
2017-11-15T00:08:40.429Z,33.77
2017-11-15T00:11:08.746Z,29.73
2017-11-15T00:13:37.070Z,30.53
2017-11-15T00:16:05.396Z,30.93
2017-11-15T00:18:34.051Z,37.50
2017-11-15T00:21:02.393Z,31.37
2017-11-15T00:23:30.736Z,35.13
2017-11-15T00:25:59.071Z,32.80
2017-11-15T00:28:27.397Z,31.70
2017-11-15T00:30:55.744Z,35.03
2017-11-15T00:33:23.891Z,36.07
2017-11-15T00:35:53.191Z,34.47
2017-11-15T00:38:21.363Z,36.47
2017-11-15T00:40:49.759Z,40.20
2017-11-15T00:43:18.129Z,35.63
2017-11-15T00:45:46.494Z,42.43
2017-11-15T00:48:14.766Z,42.93
2017-11-15T00:50:43.103Z,42.17
2017-11-15T00:53:11.649Z,34.53
2017-11-15T00:55:39.974Z,39.07
2017-11-15T00:58:08.322Z,43.73
2017-11-15T01:00:36.677Z,40.70
2017-11-15T01:03:05.123Z,39.50
2017-11-15T01:05:33.505Z,35.30
2017-11-15T01:08:01.905Z,37.63
2017-11-15T01:10:30.477Z,38.87
2017-11-15T01:12:58.979Z,33.87
2017-11-15T01:15:27.318Z,43.80
2017-11-15T01:17:55.708Z,42.40
2017-11-15T01:20:24.060Z,41.33
2017-11-15T01:22:52.377Z,36.93
2017-11-15T01:25:20.907Z,40.77
2017-11-15T01:27:49.221Z,41.30
2017-11-15T01:30:17.564Z,40.20
2017-11-15T01:32:45.888Z,40.60
2017-11-15T01:35:13.894Z,39.80
2017-11-15T01:37:42.235Z,39.37
2017-11-15T01:40:10.769Z,37.40
2017-11-15T01:42:39.442Z,37.00
2017-11-15T01:45:07.763Z,34.90
2017-11-15T01:47:35.584Z,36.40
2017-11-15T01:50:03.348Z,36.80
2017-11-15T01:52:31.676Z,42.30
2017-11-15T01:55:00.765Z,37.37
2017-11-15T01:57:29.098Z,40.27
2017-11-15T01:59:57.243Z,38.17
2017-11-15T02:02:25.225Z,36.27
2017-11-15T02:04:53.555Z,44.77
2017-11-15T02:07:22.458Z,33.40
2017-11-15T02:09:50.964Z,35.20
2017-11-15T02:12:19.361Z,38.67
2017-11-15T02:14:47.695Z,31.80
2017-11-15T02:17:16.157Z,37.20
2017-11-15T02:19:44.037Z,33.00
2017-11-15T02:22:11.699Z,34.40
2017-11-15T02:24:40.452Z,36.93
2017-11-15T02:27:08.161Z,35.13
2017-11-15T02:29:36.218Z,38.27
2017-11-15T02:32:04.289Z,37.70
2017-11-15T02:34:31.965Z,33.17
2017-11-15T02:37:00.301Z,32.57
2017-11-15T02:39:29.098Z,30.90
2017-11-15T02:41:57.105Z,33.43
2017-11-15T02:44:24.769Z,38.00
2017-11-15T02:46:52.765Z,32.67
2017-11-15T02:49:20.429Z,33.03
2017-11-15T02:51:48.091Z,32.27
2017-11-15T02:54:16.585Z,27.27
2017-11-15T02:56:44.912Z,30.33
2017-11-15T02:59:12.906Z,28.20
2017-11-15T03:01:41.227Z,30.37
2017-11-15T03:04:09.440Z,31.80
2017-11-15T03:06:37.979Z,27.73
2017-11-15T03:09:06.319Z,31.27
2017-11-15T03:11:35.416Z,29.93
2017-11-15T03:14:04.726Z,26.90
2017-11-15T03:16:32.726Z,27.93
2017-11-15T03:19:01.059Z,28.13
2017-11-15T03:21:30.142Z,26.50
2017-11-15T03:23:58.468Z,25.43
2017-11-15T03:26:26.522Z,30.50
2017-11-15T03:28:54.175Z,29.20
2017-11-15T03:31:22.507Z,27.60
2017-11-15T03:33:51.056Z,25.17
2017-11-15T03:36:19.391Z,24.43
2017-11-15T03:38:48.470Z,29.47
2017-11-15T03:41:16.809Z,29.73
2017-11-15T03:43:45.345Z,28.90
2017-11-15T03:46:13.858Z,27.33
2017-11-15T03:48:42.423Z,27.50
2017-11-15T03:51:10.896Z,26.37
2017-11-15T03:53:39.206Z,28.83
2017-11-15T03:56:07.545Z,27.50
2017-11-15T03:58:35.920Z,27.57
2017-11-15T04:01:04.261Z,27.73
2017-11-15T04:03:32.608Z,24.40
2017-11-15T04:06:00.921Z,24.90
2017-11-15T04:08:30.015Z,24.43
2017-11-15T04:10:59.334Z,24.23
2017-11-15T04:13:27.673Z,28.80
2017-11-15T04:15:55.989Z,28.00
2017-11-15T04:18:24.305Z,24.33
2017-11-15T04:20:52.638Z,28.47
2017-11-15T04:23:20.961Z,32.10
2017-11-15T04:25:49.288Z,25.93
2017-11-15T04:28:17.612Z,27.77
2017-11-15T04:30:45.930Z,27.47
2017-11-15T04:33:14.248Z,25.63
2017-11-15T04:35:42.482Z,28.93
2017-11-15T04:38:10.925Z,26.00
2017-11-15T04:40:40.228Z,28.27
2017-11-15T04:43:08.558Z,26.50
2017-11-15T04:45:36.710Z,29.47
2017-11-15T04:48:04.843Z,25.40
2017-11-15T04:50:33.215Z,24.80
2017-11-15T04:53:01.558Z,27.83
2017-11-15T04:55:30.203Z,24.13
2017-11-15T04:57:59.500Z,22.60
2017-11-15T05:00:27.916Z,24.77
2017-11-15T05:02:57.133Z,22.77
2017-11-15T05:05:25.551Z,23.60
2017-11-15T05:07:53.877Z,23.07
2017-11-15T05:10:22.211Z,27.03
2017-11-15T05:12:50.645Z,24.53
2017-11-15T05:15:19.036Z,26.97
2017-11-15T05:17:48.170Z,22.23
2017-11-15T05:20:15.841Z,26.47
2017-11-15T05:22:44.030Z,23.10
2017-11-15T05:25:16.977Z,23.00
2017-11-15T05:27:49.512Z,26.27
2017-11-15T05:30:22.551Z,22.90
2017-11-15T05:32:50.893Z,24.00
2017-11-15T05:35:24.750Z,19.33
2017-11-15T05:37:54.840Z,25.10
2017-11-15T05:40:24.722Z,23.20
2017-11-15T05:42:57.755Z,25.50
2017-11-15T05:45:29.964Z,27.20
2017-11-15T05:48:03.102Z,28.10
2017-11-15T05:50:36.138Z,21.73
2017-11-15T05:53:09.517Z,25.60
2017-11-15T05:55:41.174Z,30.23
2017-11-15T05:58:13.721Z,30.33
2017-11-15T06:00:46.753Z,29.07
2017-11-15T06:03:19.051Z,29.77
2017-11-15T06:05:51.151Z,33.00
2017-11-15T06:08:23.656Z,23.93
2017-11-15T06:10:56.427Z,28.73
2017-11-15T06:13:29.285Z,24.47
2017-11-15T06:15:57.693Z,25.23
2017-11-15T06:18:26.361Z,22.47
2017-11-15T06:20:54.899Z,26.03
2017-11-15T06:23:23.426Z,27.03
2017-11-15T06:25:51.724Z,25.13
2017-11-15T06:28:20.239Z,27.77
2017-11-15T06:30:48.810Z,28.37
2017-11-15T06:33:17.539Z,29.70
2017-11-15T06:35:46.050Z,34.80
2017-11-15T06:38:14.730Z,32.63
2017-11-15T06:40:43.061Z,27.43
2017-11-15T06:43:11.397Z,28.83
2017-11-15T06:45:39.738Z,30.27
2017-11-15T06:48:08.067Z,29.03
2017-11-15T06:50:36.732Z,30.27
2017-11-15T06:53:05.297Z,30.87
2017-11-15T06:55:33.781Z,31.67
2017-11-15T06:58:02.172Z,30.50
2017-11-15T07:00:30.510Z,31.37
2017-11-15T07:02:58.936Z,33.93
2017-11-15T07:05:27.462Z,28.70
2017-11-15T07:07:55.812Z,29.90
2017-11-15T07:10:24.142Z,27.00
2017-11-15T07:12:52.695Z,31.13
2017-11-15T07:15:21.069Z,29.00
2017-11-15T07:17:49.635Z,27.23
2017-11-15T07:20:17.987Z,26.67
2017-11-15T07:22:46.507Z,28.33
2017-11-15T07:25:14.837Z,29.97
2017-11-15T07:27:43.178Z,26.30
2017-11-15T07:30:15.953Z,27.23
2017-11-15T07:32:45.864Z,26.17
2017-11-15T07:35:18.349Z,28.03
2017-11-15T07:37:50.503Z,24.77
2017-11-15T07:40:21.177Z,33.07
2017-11-15T07:42:54.028Z,27.17
2017-11-15T07:45:27.142Z,32.87
2017-11-15T07:48:00.008Z,34.03
2017-11-15T07:50:32.267Z,36.17
2017-11-15T07:53:04.724Z,30.63
2017-11-15T07:55:36.943Z,33.90
2017-11-15T07:58:10.149Z,32.67
2017-11-15T08:00:42.662Z,33.53
2017-11-15T08:03:15.424Z,33.60
2017-11-15T08:05:43.883Z,43.20
2017-11-15T08:08:12.238Z,39.10
2017-11-15T08:10:41.342Z,37.57
2017-11-15T08:13:13.826Z,37.53
2017-11-15T08:15:45.244Z,39.10
2017-11-15T08:18:13.443Z,45.40
2017-11-15T08:20:41.980Z,42.10
2017-11-15T08:23:12.352Z,47.60
2017-11-15T08:25:44.344Z,43.03
2017-11-15T08:28:15.887Z,47.27
2017-11-15T08:30:44.385Z,38.87
2017-11-15T08:33:14.103Z,36.30
2017-11-15T08:35:42.420Z,39.80
2017-11-15T08:38:10.756Z,39.90
2017-11-15T08:40:39.096Z,43.10
2017-11-15T08:43:07.447Z,40.60
2017-11-15T08:45:35.772Z,35.93
2017-11-15T08:48:03.992Z,36.80
2017-11-15T08:50:32.328Z,35.03
2017-11-15T08:53:00.667Z,33.43
2017-11-15T08:55:29.013Z,34.70
2017-11-15T08:57:57.624Z,38.23
2017-11-15T09:00:25.633Z,40.73
2017-11-15T09:02:54.967Z,34.90
2017-11-15T09:05:28.306Z,40.47
2017-11-15T09:07:57.547Z,35.90
2017-11-15T09:10:26.845Z,31.00
2017-11-15T09:12:55.192Z,39.03
2017-11-15T09:15:23.536Z,39.07
2017-11-15T09:17:52.098Z,40.73
2017-11-15T09:20:20.441Z,35.50
2017-11-15T09:22:48.790Z,35.00
2017-11-15T09:25:17.150Z,36.87
2017-11-15T09:27:45.487Z,34.63
2017-11-15T09:30:13.814Z,36.60
2017-11-15T09:32:43.151Z,37.67
2017-11-15T09:35:11.493Z,37.83
2017-11-15T09:37:40.595Z,40.60
2017-11-15T09:40:08.942Z,36.17
2017-11-15T09:42:37.558Z,39.43
2017-11-15T09:45:05.908Z,31.77
2017-11-15T09:47:35.016Z,34.13
2017-11-15T09:50:03.011Z,39.37
2017-11-15T09:52:31.365Z,35.40
2017-11-15T09:55:00.667Z,36.97
2017-11-15T09:57:29.758Z,33.73
2017-11-15T09:59:58.972Z,32.60
2017-11-15T10:02:27.295Z,31.90
2017-11-15T10:04:55.637Z,36.43
2017-11-15T10:07:23.981Z,31.77
2017-11-15T10:09:52.476Z,34.70
2017-11-15T10:12:20.854Z,32.93
2017-11-15T10:14:49.182Z,31.10
2017-11-15T10:17:17.513Z,32.73
2017-11-15T10:19:46.053Z,30.40
2017-11-15T10:22:14.391Z,31.17
2017-11-15T10:24:42.744Z,30.23
2017-11-15T10:27:11.071Z,33.40
2017-11-15T10:29:39.611Z,29.97
2017-11-15T10:32:08.166Z,29.97
2017-11-15T10:34:36.494Z,30.50
2017-11-15T10:37:05.594Z,33.90
2017-11-15T10:39:34.143Z,32.90
2017-11-15T10:42:02.490Z,36.73
2017-11-15T10:44:30.820Z,34.53
2017-11-15T10:46:59.161Z,34.33
2017-11-15T10:49:28.803Z,36.20
2017-11-15T10:51:58.011Z,37.97
2017-11-15T10:54:26.351Z,33.23
2017-11-15T10:56:54.675Z,33.77
2017-11-15T10:59:23.033Z,36.10
2017-11-15T11:01:51.521Z,32.40
2017-11-15T11:04:19.664Z,37.53
2017-11-15T11:06:48.196Z,35.93
2017-11-15T11:09:16.536Z,35.83
2017-11-15T11:11:45.632Z,35.67
2017-11-15T11:14:14.066Z,38.73
2017-11-15T11:16:42.579Z,34.80
2017-11-15T11:19:11.750Z,32.97
2017-11-15T11:21:41.550Z,35.07
2017-11-15T11:24:09.903Z,28.00
2017-11-15T11:26:38.240Z,31.37
2017-11-15T11:29:07.569Z,34.07
2017-11-15T11:31:35.900Z,31.43
2017-11-15T11:34:05.012Z,32.70
2017-11-15T11:36:33.384Z,35.43
2017-11-15T11:39:01.398Z,34.83
2017-11-15T11:41:29.771Z,31.77
2017-11-15T11:43:58.110Z,34.40
2017-11-15T11:46:26.577Z,35.23
2017-11-15T11:48:54.910Z,37.73
2017-11-15T11:51:23.263Z,38.43
2017-11-15T11:53:51.586Z,39.10
2017-11-15T11:56:19.936Z,38.87
2017-11-15T11:58:48.267Z,36.10
2017-11-15T12:01:17.572Z,43.03
2017-11-15T12:03:45.895Z,45.57
2017-11-15T12:06:14.482Z,34.17
2017-11-15T12:08:42.820Z,38.90
2017-11-15T12:11:12.868Z,36.13
2017-11-15T12:13:41.200Z,33.97
2017-11-15T12:16:10.165Z,38.03
2017-11-15T12:18:39.284Z,38.83
2017-11-15T12:21:07.378Z,42.47
2017-11-15T12:23:35.933Z,36.80
2017-11-15T12:26:04.274Z,36.47
2017-11-15T12:28:34.295Z,38.83
2017-11-15T12:31:02.959Z,34.13
2017-11-15T12:33:31.291Z,36.27
2017-11-15T12:35:59.648Z,39.93
2017-11-15T12:38:27.971Z,33.13
2017-11-15T12:40:55.974Z,38.90
2017-11-15T12:43:24.309Z,41.40
2017-11-15T12:45:52.815Z,37.23
2017-11-15T12:48:21.025Z,42.23
2017-11-15T12:50:49.572Z,32.00
2017-11-15T12:53:18.391Z,38.47
2017-11-15T12:55:46.414Z,37.37
2017-11-15T12:58:14.919Z,41.53
2017-11-15T13:00:43.276Z,42.33
2017-11-15T13:03:11.612Z,41.67
2017-11-15T13:05:39.935Z,34.80
2017-11-15T13:08:08.316Z,36.63
2017-11-15T13:10:36.812Z,33.20
2017-11-15T13:13:05.189Z,33.90
2017-11-15T13:15:33.199Z,40.63
2017-11-15T13:18:01.562Z,29.50
2017-11-15T13:20:29.909Z,35.03
2017-11-15T13:22:58.270Z,26.63
2017-11-15T13:25:27.071Z,34.80
2017-11-15T13:27:55.476Z,34.83
2017-11-15T13:30:23.861Z,28.93
2017-11-15T13:32:52.204Z,31.20
2017-11-15T13:35:20.532Z,26.50
2017-11-15T13:37:49.264Z,26.80
2017-11-15T13:40:17.613Z,26.80
2017-11-15T13:42:46.045Z,30.03
2017-11-15T13:45:14.079Z,33.00
2017-11-15T13:47:42.398Z,27.93
2017-11-15T13:50:10.835Z,31.63
2017-11-15T13:52:39.257Z,31.50
2017-11-15T13:55:07.905Z,27.27
2017-11-15T13:57:37.020Z,33.70
2017-11-15T14:00:05.799Z,34.10
2017-11-15T14:02:34.165Z,35.63
2017-11-15T14:05:02.520Z,33.67
2017-11-15T14:07:30.865Z,30.67
2017-11-15T14:09:59.193Z,32.70
2017-11-15T14:12:27.537Z,30.40
2017-11-15T14:14:56.104Z,27.57
2017-11-15T14:17:25.201Z,30.33
2017-11-15T14:19:53.595Z,32.00
2017-11-15T14:22:21.928Z,31.80
2017-11-15T14:24:50.487Z,33.33
2017-11-15T14:27:18.927Z,28.90
2017-11-15T14:29:47.268Z,31.73
2017-11-15T14:32:16.375Z,28.33
2017-11-15T14:34:45.684Z,28.83
2017-11-15T14:37:14.033Z,28.23
2017-11-15T14:39:43.112Z,25.47
2017-11-15T14:42:12.471Z,24.50
2017-11-15T14:44:40.800Z,28.30
2017-11-15T14:47:09.827Z,29.23
2017-11-15T14:49:38.197Z,30.10
2017-11-15T14:52:06.747Z,32.30
2017-11-15T14:54:35.265Z,26.10
2017-11-15T14:57:03.608Z,32.63
2017-11-15T14:59:31.946Z,28.47
2017-11-15T15:02:00.488Z,27.50
2017-11-15T15:04:28.855Z,26.57
2017-11-15T15:06:57.382Z,27.07
2017-11-15T15:09:26.536Z,23.90
2017-11-15T15:11:54.910Z,32.90
2017-11-15T15:14:23.252Z,26.37
2017-11-15T15:16:52.540Z,24.30
2017-11-15T15:19:20.875Z,24.03
2017-11-15T15:21:49.210Z,24.97
2017-11-15T15:24:17.740Z,24.50
2017-11-15T15:26:46.074Z,29.53
2017-11-15T15:29:14.465Z,30.93
2017-11-15T15:31:42.875Z,27.13
2017-11-15T15:34:11.200Z,27.10
2017-11-15T15:36:39.606Z,24.50
2017-11-15T15:39:07.764Z,22.37
2017-11-15T15:41:36.105Z,28.67
